createdAt,value
2019-02-21T00:01:51.023Z,16.27
2019-02-21T00:04:18.919Z,16.63
2019-02-21T00:06:46.871Z,18.43
2019-02-21T00:09:14.860Z,20.50
2019-02-21T00:11:42.867Z,17.83
2019-02-21T00:14:10.954Z,17.93
2019-02-21T00:16:38.940Z,22.17
2019-02-21T00:19:06.921Z,17.13
2019-02-21T00:21:35.290Z,17.03
2019-02-21T00:24:03.554Z,16.33
2019-02-21T00:26:31.710Z,18.03
2019-02-21T00:28:59.844Z,17.10
2019-02-21T00:31:28.239Z,21.17
2019-02-21T00:33:56.379Z,16.90
2019-02-21T00:36:24.473Z,22.23
2019-02-21T00:38:52.403Z,18.50
2019-02-21T00:41:20.446Z,18.07
2019-02-21T00:43:48.432Z,18.70
2019-02-21T00:46:16.346Z,20.37
2019-02-21T00:48:44.447Z,17.73
2019-02-21T00:51:12.474Z,16.63
2019-02-21T00:53:40.457Z,20.57
2019-02-21T00:56:08.708Z,20.80
2019-02-21T00:58:36.643Z,18.57
2019-02-21T01:01:04.555Z,20.20
2019-02-21T01:03:32.496Z,20.53
2019-02-21T01:06:00.818Z,17.90
2019-02-21T01:08:28.864Z,18.87
2019-02-21T01:10:56.779Z,20.77
2019-02-21T01:13:24.836Z,22.17
2019-02-21T01:15:52.827Z,17.23
2019-02-21T01:18:20.810Z,17.23
2019-02-21T01:20:48.739Z,17.77
2019-02-21T01:23:16.717Z,17.00
2019-02-21T01:25:44.688Z,19.40
2019-02-21T01:28:13.087Z,16.97
2019-02-21T01:30:41.188Z,17.43
2019-02-21T01:33:09.495Z,17.30
2019-02-21T01:35:37.569Z,16.67
2019-02-21T01:38:05.457Z,19.13
2019-02-21T01:40:33.545Z,17.40
2019-02-21T01:43:01.593Z,18.80
2019-02-21T01:45:29.572Z,18.70
2019-02-21T01:47:57.464Z,18.87
2019-02-21T01:50:25.407Z,17.80
2019-02-21T01:52:53.343Z,17.83
2019-02-21T01:55:21.526Z,18.77
2019-02-21T01:57:49.543Z,17.20
2019-02-21T02:00:17.534Z,19.67
2019-02-21T02:02:45.721Z,19.27
2019-02-21T02:05:13.739Z,17.80
2019-02-21T02:07:42.041Z,18.13
2019-02-21T02:10:10.278Z,19.87
2019-02-21T02:12:38.333Z,18.27
2019-02-21T02:15:06.735Z,18.63
2019-02-21T02:17:35.796Z,19.37
2019-02-21T02:20:03.906Z,21.70
2019-02-21T02:22:33.247Z,24.10
2019-02-21T02:25:01.404Z,22.90
2019-02-21T02:27:29.414Z,20.03
2019-02-21T02:29:57.385Z,21.43
2019-02-21T02:32:25.301Z,23.37
2019-02-21T02:34:53.239Z,22.70
2019-02-21T02:37:21.214Z,20.77
2019-02-21T02:39:50.020Z,23.47
2019-02-21T02:42:17.948Z,23.33
2019-02-21T02:44:46.662Z,20.03
2019-02-21T02:47:14.824Z,23.70
2019-02-21T02:49:42.735Z,21.37
2019-02-21T02:52:10.656Z,22.97
2019-02-21T02:54:38.557Z,25.00
2019-02-21T02:57:06.542Z,24.33
2019-02-21T02:59:40.714Z,22.47
2019-02-21T03:02:04.183Z,22.93
2019-02-21T03:04:32.114Z,23.33
2019-02-21T03:07:00.152Z,22.27
2019-02-21T03:09:28.051Z,25.97
2019-02-21T03:11:56.003Z,24.83
2019-02-21T03:14:23.938Z,21.70
2019-02-21T03:16:51.827Z,24.90
2019-02-21T03:19:20.363Z,22.47
2019-02-21T03:21:48.339Z,24.43
2019-02-21T03:24:16.575Z,22.40
2019-02-21T03:26:44.803Z,26.97
2019-02-21T03:29:12.810Z,22.40
2019-02-21T03:31:53.580Z,23.70
2019-02-21T03:34:10.455Z,24.30
2019-02-21T03:36:38.378Z,25.93
2019-02-21T03:39:08.401Z,23.67
2019-02-21T03:41:36.297Z,22.90
2019-02-21T03:44:04.290Z,22.40
2019-02-21T03:46:32.199Z,23.87
2019-02-21T03:49:00.100Z,23.43
2019-02-21T03:51:28.098Z,26.37
2019-02-21T03:53:55.999Z,26.20
2019-02-21T03:56:24.017Z,27.37
2019-02-21T03:58:51.971Z,24.03
2019-02-21T04:01:19.906Z,26.90
2019-02-21T04:03:47.890Z,26.37
2019-02-21T04:06:15.831Z,24.13
2019-02-21T04:08:44.000Z,25.70
2019-02-21T04:11:11.907Z,27.30
2019-02-21T04:13:39.860Z,24.83
2019-02-21T04:16:07.814Z,27.67
2019-02-21T04:18:35.868Z,25.03
2019-02-21T04:21:03.948Z,25.83
2019-02-21T04:23:31.981Z,28.80
2019-02-21T04:25:59.915Z,24.63
2019-02-21T04:28:27.927Z,27.47
2019-02-21T04:30:55.908Z,26.07
2019-02-21T04:33:23.852Z,26.63
2019-02-21T04:35:51.763Z,28.20
2019-02-21T04:38:19.696Z,27.47
2019-02-21T04:40:47.627Z,24.67
2019-02-21T04:43:15.535Z,27.17
2019-02-21T04:45:43.859Z,29.00
2019-02-21T04:48:12.053Z,28.93
2019-02-21T04:50:40.370Z,30.43
2019-02-21T04:53:08.298Z,26.17
2019-02-21T04:55:36.288Z,26.67
2019-02-21T04:58:04.180Z,31.17
2019-02-21T05:00:32.139Z,30.70
2019-02-21T05:03:00.058Z,28.17
2019-02-21T05:05:28.042Z,31.97
2019-02-21T05:07:56.041Z,29.50
2019-02-21T05:10:24.039Z,28.40
2019-02-21T05:12:51.957Z,28.57
2019-02-21T05:15:19.911Z,30.87
2019-02-21T05:17:47.967Z,31.97
2019-02-21T05:20:15.933Z,34.97
2019-02-21T05:22:43.857Z,33.83
2019-02-21T05:25:11.772Z,36.53
2019-02-21T05:27:54.083Z,34.20
2019-02-21T05:30:24.550Z,34.00
2019-02-21T05:33:09.835Z,30.30
2019-02-21T05:36:03.204Z,33.70
2019-02-21T05:38:56.232Z,35.10
2019-02-21T05:41:33.036Z,33.03
2019-02-21T05:44:13.335Z,36.97
2019-02-21T05:46:54.675Z,35.07
2019-02-21T05:49:41.663Z,33.30
2019-02-21T05:52:38.135Z,31.10
2019-02-21T05:55:28.124Z,35.80
2019-02-21T05:58:20.999Z,35.10
2019-02-21T06:01:07.852Z,34.77
2019-02-21T06:03:46.483Z,34.87
2019-02-21T06:06:38.288Z,34.50
2019-02-21T06:09:13.209Z,36.27
2019-02-21T06:12:18.331Z,35.53
2019-02-21T06:15:23.402Z,37.97
2019-02-21T06:18:13.281Z,34.63
2019-02-21T06:21:01.521Z,35.83
2019-02-21T06:23:45.002Z,36.30
2019-02-21T06:26:39.556Z,37.13
2019-02-21T06:29:25.359Z,36.33
2019-02-21T06:31:53.410Z,38.43
2019-02-21T06:34:21.808Z,39.97
2019-02-21T06:36:49.831Z,39.27
2019-02-21T06:39:17.750Z,32.13
2019-02-21T06:41:45.774Z,35.67
2019-02-21T06:44:13.665Z,35.77
2019-02-21T06:46:41.593Z,37.20
2019-02-21T06:49:09.511Z,38.57
2019-02-21T06:51:37.443Z,38.80
2019-02-21T06:54:05.320Z,33.27
2019-02-21T06:56:33.235Z,36.23
2019-02-21T06:59:01.172Z,38.83
2019-02-21T07:01:29.583Z,39.53
2019-02-21T07:03:57.932Z,33.43
2019-02-21T07:06:31.834Z,33.43
2019-02-21T07:08:55.507Z,34.57
2019-02-21T07:11:25.288Z,36.13
2019-02-21T07:13:53.081Z,33.93
2019-02-21T07:16:21.020Z,36.23
2019-02-21T07:18:48.923Z,35.37
2019-02-21T07:21:16.966Z,38.47
2019-02-21T07:23:45.428Z,34.93
2019-02-21T07:26:16.121Z,34.27
2019-02-21T07:28:44.107Z,34.17
2019-02-21T07:31:12.307Z,34.07
2019-02-21T07:33:43.113Z,34.37
2019-02-21T07:36:11.223Z,43.00
2019-02-21T07:38:39.284Z,32.33
2019-02-21T07:41:07.298Z,37.57
2019-02-21T07:43:35.451Z,35.60
2019-02-21T07:46:03.762Z,36.63
2019-02-21T07:48:32.030Z,34.00
2019-02-21T07:51:03.125Z,33.47
2019-02-21T07:53:31.100Z,33.17
2019-02-21T07:56:00.247Z,36.13
2019-02-21T07:58:28.197Z,33.37
2019-02-21T08:00:56.221Z,37.90
2019-02-21T08:03:30.302Z,31.93
2019-02-21T08:05:53.912Z,36.17
2019-02-21T08:08:21.884Z,32.57
2019-02-21T08:10:50.221Z,33.50
2019-02-21T08:13:18.241Z,29.20
2019-02-21T08:15:46.562Z,32.67
2019-02-21T08:18:15.041Z,34.47
2019-02-21T08:20:43.043Z,31.27
2019-02-21T08:23:11.169Z,31.53
2019-02-21T08:25:39.151Z,30.57
2019-02-21T08:28:07.108Z,29.27
2019-02-21T08:30:35.498Z,32.47
2019-02-21T08:33:25.306Z,29.47
2019-02-21T08:35:54.167Z,32.37
2019-02-21T08:38:22.254Z,27.77
2019-02-21T08:40:53.226Z,30.60
2019-02-21T08:43:20.448Z,30.07
2019-02-21T08:45:48.454Z,31.97
2019-02-21T08:48:16.405Z,30.07
2019-02-21T08:50:44.468Z,29.60
2019-02-21T08:53:13.113Z,27.07
2019-02-21T08:55:41.122Z,31.57
2019-02-21T08:58:09.108Z,30.40
2019-02-21T09:00:37.163Z,31.67
2019-02-21T09:03:05.236Z,33.63
2019-02-21T09:05:33.395Z,28.73
2019-02-21T09:08:01.373Z,30.00
2019-02-21T09:10:29.400Z,31.27
2019-02-21T09:12:57.345Z,32.00
2019-02-21T09:15:25.276Z,30.00
2019-02-21T09:17:54.182Z,31.07
2019-02-21T09:20:22.561Z,28.10
2019-02-21T09:22:51.645Z,32.57
2019-02-21T09:25:19.965Z,29.10
2019-02-21T09:27:47.930Z,33.93
2019-02-21T09:30:16.528Z,29.23
2019-02-21T09:32:44.641Z,34.00
2019-02-21T09:35:12.835Z,30.43
2019-02-21T09:37:40.778Z,29.40
2019-02-21T09:40:10.812Z,31.27
2019-02-21T09:42:39.074Z,28.77
2019-02-21T09:45:09.428Z,29.97
2019-02-21T09:47:37.558Z,30.50
2019-02-21T09:50:06.297Z,29.73
2019-02-21T09:52:34.611Z,30.27
2019-02-21T09:55:02.570Z,31.17
2019-02-21T09:57:30.532Z,28.87
2019-02-21T09:59:58.634Z,30.37
2019-02-21T10:02:26.614Z,31.10
2019-02-21T10:05:04.421Z,29.93
2019-02-21T10:07:24.744Z,30.37
2019-02-21T10:09:53.441Z,29.03
2019-02-21T10:12:21.466Z,27.97
2019-02-21T10:14:52.211Z,28.30
2019-02-21T10:17:20.159Z,33.07
2019-02-21T10:19:48.100Z,26.00
2019-02-21T10:22:16.083Z,31.03
2019-02-21T10:24:44.008Z,27.93
2019-02-21T10:27:11.902Z,29.37
2019-02-21T10:29:40.175Z,25.20
2019-02-21T10:32:08.340Z,26.97
2019-02-21T10:34:42.969Z,24.07
2019-02-21T10:37:06.352Z,26.27
2019-02-21T10:39:34.293Z,28.93
2019-02-21T10:42:02.239Z,27.23
2019-02-21T10:44:30.299Z,25.33
2019-02-21T10:46:58.252Z,22.83
2019-02-21T10:49:26.179Z,22.37
2019-02-21T10:51:54.175Z,24.67
2019-02-21T10:54:22.208Z,25.73
2019-02-21T10:56:50.847Z,23.60
2019-02-21T10:59:18.871Z,22.80
2019-02-21T11:01:46.851Z,20.10
2019-02-21T11:04:14.848Z,23.20
2019-02-21T11:06:42.805Z,21.20
2019-02-21T11:09:16.404Z,19.70
2019-02-21T11:11:44.502Z,24.20
2019-02-21T11:14:12.710Z,22.10
2019-02-21T11:16:44.518Z,19.80
2019-02-21T11:19:12.526Z,21.10
2019-02-21T11:21:40.477Z,18.33
2019-02-21T11:24:09.933Z,21.90
2019-02-21T11:26:38.854Z,18.83
2019-02-21T11:29:07.129Z,19.33
2019-02-21T11:31:35.215Z,16.47
2019-02-21T11:34:05.042Z,20.27
2019-02-21T11:36:33.037Z,17.43
2019-02-21T11:39:01.005Z,19.97
2019-02-21T11:41:28.979Z,18.07
2019-02-21T11:43:57.016Z,20.63
2019-02-21T11:46:24.976Z,17.73
2019-02-21T11:48:52.900Z,19.10
2019-02-21T11:51:21.381Z,19.73
2019-02-21T11:53:49.534Z,18.50
2019-02-21T11:56:17.534Z,19.77
2019-02-21T11:58:45.650Z,16.00
2019-02-21T12:01:13.644Z,18.67
2019-02-21T12:03:42.378Z,18.77
2019-02-21T12:06:10.445Z,17.97
2019-02-21T12:08:39.937Z,17.50
2019-02-21T12:11:08.025Z,20.13
2019-02-21T12:13:38.130Z,19.80
2019-02-21T12:16:06.232Z,19.53
2019-02-21T12:18:37.765Z,18.83
2019-02-21T12:21:06.609Z,20.90
2019-02-21T12:23:36.060Z,17.77
2019-02-21T12:26:04.159Z,18.00
2019-02-21T12:28:33.123Z,17.73
2019-02-21T12:31:01.096Z,15.93
2019-02-21T12:33:29.080Z,18.47
2019-02-21T12:35:59.396Z,19.73
2019-02-21T12:38:26.965Z,19.93
2019-02-21T12:40:54.861Z,15.67
2019-02-21T12:43:23.040Z,17.87
2019-02-21T12:45:52.684Z,22.50
2019-02-21T12:48:20.885Z,21.73
2019-02-21T12:50:48.929Z,17.17
2019-02-21T12:53:17.023Z,16.93
2019-02-21T12:55:45.113Z,16.07
2019-02-21T12:58:13.658Z,18.37
2019-02-21T13:00:41.774Z,15.70
2019-02-21T13:03:09.815Z,17.97
2019-02-21T13:05:40.979Z,19.97
2019-02-21T13:08:07.581Z,15.43
2019-02-21T13:10:35.581Z,19.83
2019-02-21T13:13:03.534Z,21.13
2019-02-21T13:15:31.583Z,19.70
2019-02-21T13:17:59.630Z,19.13
2019-02-21T13:20:27.732Z,22.40
2019-02-21T13:22:55.814Z,20.77
2019-02-21T13:25:23.764Z,23.00
2019-02-21T13:27:52.070Z,20.40
2019-02-21T13:30:20.068Z,21.23
2019-02-21T13:32:48.059Z,22.97
2019-02-21T13:35:16.091Z,25.60
2019-02-21T13:37:44.347Z,24.87
2019-02-21T13:40:12.877Z,24.63
2019-02-21T13:42:40.854Z,27.10
2019-02-21T13:45:11.692Z,24.63
2019-02-21T13:47:39.693Z,28.17
2019-02-21T13:50:09.947Z,27.80
2019-02-21T13:52:37.973Z,34.13
2019-02-21T13:55:06.186Z,28.90
2019-02-21T13:57:34.219Z,27.13
2019-02-21T14:00:02.218Z,36.50
2019-02-21T14:02:30.195Z,33.67
2019-02-21T14:04:58.920Z,32.90
2019-02-21T14:07:27.183Z,36.57
2019-02-21T14:09:56.044Z,32.50
2019-02-21T14:12:26.415Z,33.03
2019-02-21T14:14:53.897Z,30.30
2019-02-21T14:17:22.233Z,28.77
2019-02-21T14:19:52.884Z,38.43
2019-02-21T14:22:20.023Z,38.03
2019-02-21T14:24:48.040Z,32.47
2019-02-21T14:27:16.581Z,30.70
2019-02-21T14:29:44.685Z,32.57
2019-02-21T14:32:12.729Z,33.07
2019-02-21T14:34:40.746Z,31.67
2019-02-21T14:37:10.313Z,28.00
2019-02-21T14:39:38.447Z,32.03
2019-02-21T14:42:06.475Z,32.23
2019-02-21T14:44:34.463Z,39.30
2019-02-21T14:47:02.494Z,30.97
2019-02-21T14:49:30.463Z,33.13
2019-02-21T14:51:58.781Z,33.87
2019-02-21T14:54:26.778Z,35.00
2019-02-21T14:56:54.775Z,32.40
2019-02-21T14:59:22.701Z,29.37
2019-02-21T15:01:50.659Z,34.27
2019-02-21T15:04:19.040Z,34.73
2019-02-21T15:06:47.074Z,32.27
2019-02-21T15:09:15.069Z,34.97
2019-02-21T15:11:43.084Z,31.80
2019-02-21T15:14:11.140Z,33.30
2019-02-21T15:16:39.168Z,35.27
2019-02-21T15:19:09.857Z,29.40
2019-02-21T15:21:37.872Z,33.70
2019-02-21T15:24:05.866Z,31.87
2019-02-21T15:26:33.917Z,28.93
2019-02-21T15:29:01.964Z,31.87
2019-02-21T15:31:30.070Z,29.43
2019-02-21T15:33:58.205Z,32.57
2019-02-21T15:36:37.437Z,28.63
2019-02-21T15:38:56.140Z,29.33
2019-02-21T15:41:24.283Z,25.67
2019-02-21T15:43:52.260Z,30.30
2019-02-21T15:46:20.343Z,35.47
2019-02-21T15:48:48.340Z,31.67
2019-02-21T15:51:16.420Z,26.47
2019-02-21T15:53:44.347Z,36.53
2019-02-21T15:56:12.853Z,32.27
2019-02-21T15:58:40.848Z,31.10
2019-02-21T16:01:08.755Z,30.60
2019-02-21T16:03:36.792Z,27.93
2019-02-21T16:06:04.898Z,27.63
2019-02-21T16:09:16.242Z,30.67
2019-02-21T16:12:00.389Z,29.53
2019-02-21T16:14:38.068Z,27.00
2019-02-21T16:17:22.314Z,31.90
2019-02-21T16:20:32.646Z,28.87
2019-02-21T16:23:12.159Z,30.67
2019-02-21T16:25:53.830Z,31.93
2019-02-21T16:28:22.184Z,29.90
2019-02-21T16:30:50.237Z,33.00
2019-02-21T16:33:18.344Z,37.13
2019-02-21T16:35:46.326Z,34.90
2019-02-21T16:38:14.313Z,30.90
2019-02-21T16:40:42.320Z,31.03
2019-02-21T16:43:10.293Z,29.27
2019-02-21T16:45:43.428Z,30.80
2019-02-21T16:48:07.969Z,29.97
2019-02-21T16:50:35.878Z,29.53
2019-02-21T16:53:03.780Z,37.90
2019-02-21T16:55:31.827Z,28.43
2019-02-21T16:57:59.867Z,30.50
2019-02-21T17:00:42.146Z,29.57
2019-02-21T17:28:15.741Z,31.90
2019-02-21T17:30:44.577Z,29.77
2019-02-21T17:33:12.482Z,36.00
2019-02-21T17:35:40.461Z,35.70
2019-02-21T17:38:10.642Z,32.60
2019-02-21T17:40:38.703Z,36.53
2019-02-21T17:43:07.002Z,35.90
2019-02-21T17:45:35.020Z,35.93
2019-02-21T17:48:02.979Z,34.20
2019-02-21T17:50:31.250Z,36.23
2019-02-21T17:52:59.293Z,28.73
2019-02-21T17:55:27.333Z,33.23
2019-02-21T17:57:55.544Z,32.07
2019-02-21T18:00:30.908Z,32.00
2019-02-21T18:02:59.066Z,25.57
2019-02-21T18:05:27.047Z,30.17
2019-02-21T18:07:55.075Z,24.43
2019-02-21T18:10:23.130Z,31.17
2019-02-21T18:12:51.694Z,29.73
2019-02-21T18:15:20.037Z,24.83
2019-02-21T18:17:48.326Z,30.43
2019-02-21T18:20:16.418Z,32.93
2019-02-21T18:22:44.428Z,27.87
2019-02-21T18:25:14.051Z,26.87
2019-02-21T18:27:42.131Z,26.20
2019-02-21T18:30:11.024Z,30.23
2019-02-21T18:32:41.340Z,28.83
2019-02-21T18:35:09.449Z,31.87
2019-02-21T18:37:47.000Z,28.07
2019-02-21T18:40:16.845Z,28.70
2019-02-21T18:42:38.203Z,26.60
2019-02-21T18:45:07.004Z,21.80
2019-02-21T18:47:35.096Z,27.77
2019-02-21T18:50:03.257Z,23.10
2019-02-21T18:52:31.281Z,21.07
2019-02-21T18:54:59.394Z,29.00
2019-02-21T18:57:27.376Z,26.53
2019-02-21T18:59:55.410Z,25.50
2019-02-21T19:02:23.698Z,23.87
2019-02-21T19:04:52.088Z,26.23
2019-02-21T19:07:20.110Z,23.23
2019-02-21T19:09:48.166Z,26.97
2019-02-21T19:12:16.167Z,24.07
2019-02-21T19:14:44.172Z,27.17
2019-02-21T19:17:12.234Z,27.57
2019-02-21T19:19:40.300Z,28.27
2019-02-21T19:22:08.675Z,29.60
2019-02-21T19:24:37.134Z,30.80
2019-02-21T19:27:05.589Z,34.43
2019-02-21T19:29:33.638Z,32.97
2019-02-21T19:32:02.065Z,30.27
2019-02-21T19:34:30.086Z,31.87
2019-02-21T19:36:58.061Z,31.17
2019-02-21T19:39:26.378Z,30.90
2019-02-21T19:41:54.480Z,31.43
2019-02-21T19:44:22.424Z,31.80
2019-02-21T19:46:50.655Z,31.13
2019-02-21T19:49:18.755Z,31.73
2019-02-21T19:51:46.828Z,39.97
2019-02-21T19:54:14.775Z,28.77
2019-02-21T19:56:42.813Z,29.20
2019-02-21T19:59:10.796Z,34.57
2019-02-21T20:01:38.922Z,34.13
2019-02-21T20:04:06.840Z,30.07
2019-02-21T20:06:34.860Z,30.43
2019-02-21T20:09:03.014Z,29.57
2019-02-21T20:11:31.082Z,30.30
2019-02-21T20:13:59.076Z,32.57
2019-02-21T20:16:27.181Z,30.13
2019-02-21T20:18:55.365Z,32.63
2019-02-21T20:21:23.580Z,40.67
2019-02-21T20:23:51.648Z,35.57
2019-02-21T20:26:19.694Z,35.77
2019-02-21T20:28:47.765Z,28.67
2019-02-21T20:31:15.807Z,31.50
2019-02-21T20:33:45.146Z,42.47
2019-02-21T20:36:13.202Z,42.87
2019-02-21T20:38:41.303Z,37.13
2019-02-21T20:41:09.555Z,38.33
2019-02-21T20:43:37.572Z,33.03
2019-02-21T20:46:05.645Z,37.13
2019-02-21T20:48:33.647Z,39.20
2019-02-21T20:51:01.884Z,32.40
2019-02-21T20:53:30.113Z,37.50
2019-02-21T20:55:58.090Z,40.70
2019-02-21T20:58:26.218Z,35.03
2019-02-21T21:00:54.198Z,41.50
2019-02-21T21:03:24.004Z,39.00
2019-02-21T21:05:51.953Z,38.33
2019-02-21T21:08:22.713Z,39.60
2019-02-21T21:10:50.719Z,36.77
2019-02-21T21:13:18.779Z,36.53
2019-02-21T21:15:46.842Z,37.93
2019-02-21T21:18:14.863Z,31.90
2019-02-21T21:20:42.885Z,35.37
2019-02-21T21:23:10.800Z,39.70
2019-02-21T21:25:38.891Z,33.07
2019-02-21T21:28:06.959Z,35.27
2019-02-21T21:30:34.898Z,38.27
2019-02-21T21:33:02.964Z,28.77
2019-02-21T21:35:31.042Z,32.60
2019-02-21T21:37:58.974Z,35.63
2019-02-21T21:40:26.940Z,33.93
2019-02-21T21:42:54.981Z,32.27
2019-02-21T21:45:23.015Z,33.73
2019-02-21T21:47:54.181Z,39.13
2019-02-21T21:50:25.142Z,34.13
2019-02-21T21:52:53.554Z,34.43
2019-02-21T21:55:21.504Z,33.50
2019-02-21T21:57:49.409Z,32.70
2019-02-21T22:00:18.579Z,32.10
2019-02-21T22:02:46.525Z,35.60
2019-02-21T22:05:14.650Z,35.57
2019-02-21T22:07:42.701Z,35.60
2019-02-21T22:10:11.419Z,37.90
2019-02-21T22:12:39.355Z,35.23
2019-02-21T22:15:08.077Z,36.87
2019-02-21T22:17:35.984Z,36.00
2019-02-21T22:20:04.072Z,38.17
2019-02-21T22:22:32.045Z,35.13
2019-02-21T22:24:59.962Z,38.47
2019-02-21T22:27:27.953Z,36.50
2019-02-21T22:29:55.899Z,38.30
2019-02-21T22:32:23.935Z,36.93
2019-02-21T22:34:52.392Z,36.90
2019-02-21T22:37:20.388Z,40.17
2019-02-21T22:39:48.346Z,41.67
2019-02-21T22:42:16.408Z,39.30
2019-02-21T22:44:44.557Z,37.60
2019-02-21T22:47:12.677Z,45.47
2019-02-21T22:49:40.635Z,37.60
2019-02-21T22:52:08.736Z,41.80
2019-02-21T22:54:37.778Z,38.83
2019-02-21T22:57:06.457Z,42.20
2019-02-21T22:59:34.401Z,41.97
2019-02-21T23:02:02.562Z,42.63
2019-02-21T23:04:39.562Z,41.13
2019-02-21T23:07:09.872Z,49.40
2019-02-21T23:09:37.892Z,58.60
2019-02-21T23:12:06.118Z,66.00
2019-02-21T23:14:34.041Z,68.07
2019-02-21T23:17:02.115Z,66.87
2019-02-21T23:19:30.075Z,61.37
2019-02-21T23:21:58.351Z,58.97
2019-02-21T23:24:26.380Z,60.17
2019-02-21T23:26:54.654Z,58.07
2019-02-21T23:29:22.574Z,61.33
2019-02-21T23:31:50.579Z,65.43
2019-02-21T23:34:43.771Z,74.00
2019-02-21T23:37:11.981Z,67.77
2019-02-21T23:39:39.897Z,64.80
2019-02-21T23:42:07.903Z,70.43
2019-02-21T23:44:35.816Z,68.73
2019-02-21T23:47:04.056Z,76.17
2019-02-21T23:49:32.009Z,76.67
2019-02-21T23:51:59.945Z,56.40
2019-02-21T23:54:27.831Z,46.87
2019-02-21T23:56:55.931Z,45.23
2019-02-21T23:59:24.250Z,46.00
